Time;durP1;ratioP1;P1;durP2;ratioP2;P2;SDS_P1;SDS_P2;PMS_P1;PMS_P2;Temp;Humidity;BMP_temperature;BMP_pressure;BME280_temperature;BME280_humidity;BME280_pressure;Samples;Min_cycle;Max_cycle;Signal;HPM_P1;HPM_P2
2023/01/17 11:50:23;;;;;;;2.10;0.63;;;;;;;;;;2485140;24;20306;-78
2023/01/17 11:52:49;;;;;;;3.15;0.75;;;;;;;;;;4886548;29;20120;-80
2023/01/17 11:55:21;;;;;;;3.40;0.60;;;;;;;;;;4878714;29;20033;-80
2023/01/17 11:57:57;;;;;;;2.25;0.60;;;;;;;;;;4884259;29;20036;-80
2023/01/17 12:00:23;;;;;;;1.80;0.73;;;;;;;;;;4887369;29;20029;-80
2023/01/17 12:02:49;;;;;;;3.35;0.60;;;;;;;;;;4883060;29;20025;-80
2023/01/17 12:05:18;;;;;;;3.85;0.80;;;;;;;;;;4862771;29;20109;-80
2023/01/17 12:07:50;;;;;;;1.83;0.70;;;;;;;;;;4886273;29;20080;-80
2023/01/17 12:10:21;;;;;;;2.95;0.70;;;;;;;;;;4878570;29;20038;-80
2023/01/17 12:15:52;;;;;;;1.52;0.43;;;;;;;;;;4875717;29;20044;-79
2023/01/17 12:18:29;;;;;;;3.42;0.65;;;;;;;;;;4883870;29;20036;-79
2023/01/17 12:21:06;;;;;;;1.95;0.50;;;;;;;;;;4886961;29;20064;-79
2023/01/17 12:23:39;;;;;;;2.28;0.50;;;;;;;;;;4884328;29;20045;-79
2023/01/17 12:26:18;;;;;;;4.53;0.90;;;;;;;;;;4875616;29;20025;-79
2023/01/17 12:28:47;;;;;;;1.85;0.50;;;;;;;;;;4870271;29;20040;-79
2023/01/17 12:31:22;;;;;;;4.30;0.68;;;;;;;;;;4884377;29;20033;-80
2023/01/17 12:33:54;;;;;;;3.58;0.80;;;;;;;;;;4875602;29;20029;-80
2023/01/17 12:36:41;;;;;;;0.55;0.30;;;;;;;;;;4859638;29;20048;-80
2023/01/17 12:39:10;;;;;;;2.47;0.40;;;;;;;;;;4865570;29;20033;-80
2023/01/17 12:41:43;;;;;;;2.50;0.70;;;;;;;;;;4874875;29;20025;-80
2023/01/17 12:44:09;;;;;;;1.80;0.60;;;;;;;;;;4877106;29;20552;-80
2023/01/17 12:46:39;;;;;;;3.45;0.60;;;;;;;;;;4855398;29;20067;-80
2023/01/17 12:49:21;;;;;;;4.70;1.00;;;;;;;;;;4883063;29;20052;-80
2023/01/17 12:51:50;;;;;;;2.40;0.60;;;;;;;;;;4652540;23;20080;-75
2023/01/17 12:54:37;;;;;;;0.65;0.40;;;;;;;;;;4824827;29;20042;-75
2023/01/17 12:57:08;;;;;;;1.08;0.40;;;;;;;;;;4811713;29;20031;-77
2023/01/17 12:59:39;;;;;;;1.40;0.60;;;;;;;;;;4805559;29;20102;-76
2023/01/17 13:02:19;;;;;;;1.52;0.82;;;;;;;;;;4802607;29;20073;-76
2023/01/17 13:04:45;;;;;;;3.67;0.50;;;;;;;;;;4799113;29;20481;-76
2023/01/17 13:07:30;;;;;;;2.30;0.40;;;;;;;;;;4807167;29;20039;-76
2023/01/17 13:12:36;;;;;;;0.50;0.50;;;;;;;;;;4010336;24;20056;-79
2023/01/17 13:15:05;;;;;;;;;;;;;;;;;;4876229;29;20529;-80
2023/01/17 13:17:43;;;;;;;2.60;0.57;;;;;;;;;;4864538;29;20352;-80
2023/01/17 13:20:22;;;;;;;2.25;0.60;;;;;;;;;;4879981;29;20036;-79
2023/01/17 13:22:49;;;;;;;1.38;0.60;;;;;;;;;;4876497;29;20107;-80
2023/01/17 13:25:36;;;;;;;4.45;0.32;;;;;;;;;;4880997;29;20455;-80
2023/01/17 13:28:04;;;;;;;2.65;0.40;;;;;;;;;;4884521;29;20029;-80
2023/01/17 13:30:31;;;;;;;2.70;0.40;;;;;;;;;;4875861;29;20542;-80
2023/01/17 13:33:14;;;;;;;2.72;0.50;;;;;;;;;;4862165;29;20029;-80
2023/01/17 13:35:49;;;;;;;3.83;0.50;;;;;;;;;;4871345;29;20032;-80
2023/01/17 13:38:29;;;;;;;0.90;0.20;;;;;;;;;;4881010;29;20037;-80
2023/01/17 13:41:11;;;;;;;1.30;0.32;;;;;;;;;;5131183;27;20375;-76
2023/01/17 13:43:38;;;;;;;3.30;0.40;;;;;;;;;;5110943;28;20418;-76
2023/01/17 13:46:05;;;;;;;1.85;0.38;;;;;;;;;;5108175;28;20028;-77
2023/01/17 13:48:39;;;;;;;3.22;0.45;;;;;;;;;;5105834;28;20099;-76
2023/01/17 13:51:09;;;;;;;2.97;0.63;;;;;;;;;;5092561;28;20032;-76
2023/01/17 13:53:38;;;;;;;2.78;0.38;;;;;;;;;;5111217;28;20024;-76
2023/01/17 13:56:19;;;;;;;4.30;0.50;;;;;;;;;;5110683;28;20026;-76
2023/01/17 14:01:14;;;;;;;6.68;0.55;;;;;;;;;;5089634;28;20097;-76
2023/01/17 14:03:46;;;;;;;3.28;0.40;;;;;;;;;;5089625;28;20035;-76
2023/01/17 14:06:30;;;;;;;1.88;0.47;;;;;;;;;;5083132;28;20017;-76
2023/01/17 14:09:01;;;;;;;12.65;0.70;;;;;;;;;;5069475;28;20028;-76
2023/01/17 14:11:27;;;;;;;1.90;0.35;;;;;;;;;;5069850;28;20642;-76
2023/01/17 14:13:53;;;;;;;0.50;0.20;;;;;;;;;;5075227;28;20033;-76
2023/01/17 14:16:22;;;;;;;2.35;0.40;;;;;;;;;;5089775;28;20111;-76
2023/01/17 14:18:48;;;;;;;1.67;0.35;;;;;;;;;;5080881;28;20024;-76
2023/01/17 14:21:32;;;;;;;1.80;0.30;;;;;;;;;;5081267;28;20469;-77
2023/01/17 14:24:11;;;;;;;2.20;0.50;;;;;;;;;;5087386;28;20055;-76
2023/01/17 14:26:45;;;;;;;2.47;0.50;;;;;;;;;;5077053;28;20306;-76
2023/01/17 14:29:31;;;;;;;2.15;0.50;;;;;;;;;;5078122;28;20029;-76
2023/01/17 14:32:05;;;;;;;2.00;0.52;;;;;;;;;;5070658;28;20028;-76
2023/01/17 14:34:32;;;;;;;2.13;0.47;;;;;;;;;;5080695;28;20036;-76
2023/01/17 14:37:06;;;;;;;3.42;0.52;;;;;;;;;;5088583;28;20099;-76
2023/01/17 14:39:42;;;;;;;1.15;0.40;;;;;;;;;;5063981;28;20452;-76
2023/01/17 14:42:11;;;;;;;3.97;0.77;;;;;;;;;;5050071;28;20040;-76
2023/01/17 14:44:37;;;;;;;0.88;0.60;;;;;;;;;;5068215;28;20021;-76
2023/01/17 14:47:04;;;;;;;2.35;0.60;;;;;;;;;;5060681;28;20390;-76
2023/01/17 14:49:30;;;;;;;0.73;0.40;;;;;;;;;;5065787;28;20100;-76
2023/01/17 14:52:00;;;;;;;1.10;0.40;;;;;;;;;;5052414;28;20438;-76
2023/01/17 14:54:26;;;;;;;1.02;0.50;;;;;;;;;;5053993;28;20032;-76
2023/01/17 14:57:10;;;;;;;3.70;0.82;;;;;;;;;;5046736;28;20382;-76
2023/01/17 14:59:36;;;;;;;1.17;0.45;;;;;;;;;;5046179;28;20029;-76
2023/01/17 15:02:03;;;;;;;1.23;0.35;;;;;;;;;;5039821;28;20038;-76
2023/01/17 15:04:34;;;;;;;0.77;0.40;;;;;;;;;;5035654;28;20454;-76
2023/01/17 15:07:00;;;;;;;0.95;0.40;;;;;;;;;;5054674;28;20025;-76
2023/01/17 15:09:27;;;;;;;1.75;0.45;;;;;;;;;;5043482;28;20033;-76
2023/01/17 15:11:54;;;;;;;1.90;0.75;;;;;;;;;;5043083;28;20029;-76
2023/01/17 15:14:20;;;;;;;3.08;0.95;;;;;;;;;;5051390;28;20040;-76
2023/01/17 15:16:46;;;;;;;3.65;0.45;;;;;;;;;;5054391;28;20100;-76
2023/01/17 15:19:14;;;;;;;2.80;0.50;;;;;;;;;;5054147;28;20040;-76
2023/01/17 15:21:41;;;;;;;3.20;0.35;;;;;;;;;;5051420;28;20064;-76
2023/01/17 15:24:28;;;;;;;5.15;0.75;;;;;;;;;;5041158;28;20021;-76
2023/01/17 15:26:55;;;;;;;2.95;0.93;;;;;;;;;;5035389;28;20032;-76
2023/01/17 15:29:24;;;;;;;8.00;0.68;;;;;;;;;;5053969;28;20086;-76
2023/01/17 15:31:57;;;;;;;11.27;0.90;;;;;;;;;;5054603;28;20021;-76
2023/01/17 15:34:23;;;;;;;3.10;0.68;;;;;;;;;;5044057;28;20466;-76
2023/01/17 15:36:49;;;;;;;2.47;0.70;;;;;;;;;;5051675;28;20025;-76
2023/01/17 15:39:22;;;;;;;1.55;0.80;;;;;;;;;;5053248;28;20052;-76
2023/01/17 15:41:53;;;;;;;1.83;0.70;;;;;;;;;;5027987;28;20048;-76
2023/01/17 15:44:26;;;;;;;2.42;0.70;;;;;;;;;;5053687;28;20385;-76
2023/01/17 15:46:52;;;;;;;1.90;0.70;;;;;;;;;;5054599;28;20021;-76
2023/01/17 15:49:19;;;;;;;3.88;0.85;;;;;;;;;;5054210;28;20082;-76
2023/01/17 15:52:04;;;;;;;2.97;0.73;;;;;;;;;;5045855;28;20090;-76
2023/01/17 15:54:33;;;;;;;3.90;1.30;;;;;;;;;;5045515;28;20021;-76
2023/01/17 15:57:03;;;;;;;3.97;0.90;;;;;;;;;;5035937;28;20025;-76
2023/01/17 15:59:42;;;;;;;4.15;1.20;;;;;;;;;;5038586;28;20033;-76
2023/01/17 16:02:31;;;;;;;2.67;1.00;;;;;;;;;;5047347;28;20540;-76
2023/01/17 16:04:58;;;;;;;5.15;1.52;;;;;;;;;;5038184;28;20481;-76
2023/01/17 16:07:34;;;;;;;2.38;1.30;;;;;;;;;;5043851;28;20051;-76
2023/01/17 16:10:08;;;;;;;3.15;1.65;;;;;;;;;;5039461;28;20509;-76
2023/01/17 16:12:34;;;;;;;7.35;1.75;;;;;;;;;;5034448;28;20055;-76
2023/01/17 16:15:00;;;;;;;4.72;1.17;;;;;;;;;;5034488;28;20061;-76
2023/01/17 16:17:27;;;;;;;2.42;1.20;;;;;;;;;;5042530;28;20029;-76
2023/01/17 16:19:53;;;;;;;1.98;1.30;;;;;;;;;;5050321;28;20040;-76
2023/01/17 16:22:19;;;;;;;2.53;1.20;;;;;;;;;;5023544;28;20462;-76
2023/01/17 16:24:45;;;;;;;2.60;1.45;;;;;;;;;;5045684;28;20028;-76
2023/01/17 16:27:11;;;;;;;1.90;1.20;;;;;;;;;;5054124;28;20021;-76
2023/01/17 16:29:37;;;;;;;1.75;1.10;;;;;;;;;;5050418;28;20514;-76
2023/01/17 16:32:07;;;;;;;3.75;1.30;;;;;;;;;;5050995;28;20025;-76
2023/01/17 16:34:33;;;;;;;4.28;1.70;;;;;;;;;;5034503;28;20022;-76
2023/01/17 16:36:59;;;;;;;3.95;1.20;;;;;;;;;;5053350;28;20376;-76
2023/01/17 16:39:26;;;;;;;5.53;1.55;;;;;;;;;;5048349;28;20045;-76
2023/01/17 16:41:58;;;;;;;3.85;1.17;;;;;;;;;;5033891;28;20108;-75
2023/01/17 16:44:24;;;;;;;1.77;1.27;;;;;;;;;;5040212;28;20484;-76
2023/01/17 16:46:51;;;;;;;1.45;1.10;;;;;;;;;;5044652;28;20104;-76
2023/01/17 16:49:17;;;;;;;4.88;1.58;;;;;;;;;;5046565;28;20036;-75
2023/01/17 16:51:46;;;;;;;2.70;1.90;;;;;;;;;;5045089;28;20367;-75
2023/01/17 16:54:12;;;;;;;6.97;2.40;;;;;;;;;;5053919;28;20021;-76
2023/01/17 16:56:38;;;;;;;3.40;1.83;;;;;;;;;;5053317;28;20021;-76
2023/01/17 16:59:04;;;;;;;3.78;1.50;;;;;;;;;;5053507;28;20049;-76
2023/01/17 17:01:30;;;;;;;4.22;1.38;;;;;;;;;;5039265;28;20022;-75
2023/01/17 17:03:56;;;;;;;4.30;2.22;;;;;;;;;;5041799;28;20405;-75
2023/01/17 17:06:22;;;;;;;7.10;3.25;;;;;;;;;;5046875;28;20039;-75
2023/01/17 17:08:48;;;;;;;3.63;2.05;;;;;;;;;;5027839;28;20029;-75
2023/01/17 17:11:18;;;;;;;3.67;2.35;;;;;;;;;;5048896;28;20044;-76
2023/01/17 17:13:44;;;;;;;;;;;;;;;;;;5041688;28;20056;-75
2023/01/17 17:16:13;;;;;;;5.78;1.95;;;;;;;;;;5052550;28;19909;-75
2023/01/17 17:18:39;;;;;;;8.52;2.10;;;;;;;;;;5053036;28;20389;-76
2023/01/17 17:21:05;;;;;;;5.53;2.00;;;;;;;;;;5050076;28;20037;-76
2023/01/17 17:23:31;;;;;;;4.30;1.52;;;;;;;;;;5047328;28;20108;-77
2023/01/17 17:25:57;;;;;;;3.20;1.38;;;;;;;;;;5034132;28;20108;-77
2023/01/17 17:28:23;;;;;;;1.95;1.65;;;;;;;;;;5041109;28;20528;-77
2023/01/17 17:30:49;;;;;;;5.75;1.90;;;;;;;;;;5023564;28;20029;-77
2023/01/17 17:33:15;;;;;;;4.78;1.55;;;;;;;;;;5052525;28;20056;-77
2023/01/17 17:35:41;;;;;;;4.40;2.00;;;;;;;;;;5046456;28;20112;-77
2023/01/17 17:38:07;;;;;;;4.00;1.83;;;;;;;;;;5042656;28;20370;-77
2023/01/17 17:40:36;;;;;;;6.97;1.65;;;;;;;;;;5047600;28;20115;-77
2023/01/17 17:43:02;;;;;;;4.30;1.25;;;;;;;;;;5041631;28;20075;-77
2023/01/17 17:45:28;;;;;;;4.40;1.10;;;;;;;;;;5048056;28;20030;-77
2023/01/17 17:47:54;;;;;;;3.50;1.05;;;;;;;;;;5032717;28;20471;-77
2023/01/17 17:50:20;;;;;;;2.97;1.30;;;;;;;;;;5025471;28;20021;-77
2023/01/17 17:52:47;;;;;;;4.05;1.23;;;;;;;;;;5051936;28;20075;-77
2023/01/17 17:55:17;;;;;;;3.53;1.58;;;;;;;;;;5051937;28;20493;-76
2023/01/17 17:57:43;;;;;;;;;;;;;;;;;;5044810;28;20052;-77
2023/01/17 18:00:10;;;;;;;2.97;1.00;;;;;;;;;;5038608;28;20364;-77
2023/01/17 18:02:36;;;;;;;2.20;1.00;;;;;;;;;;5050260;28;20056;-77
2023/01/17 18:05:02;;;;;;;2.35;1.05;;;;;;;;;;5045884;28;20434;-77
2023/01/17 18:07:30;;;;;;;1.40;0.88;;;;;;;;;;5039218;28;20482;-77
2023/01/17 18:09:58;;;;;;;9.27;2.60;;;;;;;;;;5037322;28;20030;-77
2023/01/17 18:12:30;;;;;;;8.50;3.50;;;;;;;;;;5042322;28;20061;-77
2023/01/17 18:15:00;;;;;;;9.85;3.75;;;;;;;;;;5036017;28;20363;-77
2023/01/17 18:17:26;;;;;;;6.20;1.80;;;;;;;;;;5042885;28;20021;-77
2023/01/17 18:19:52;;;;;;;3.28;1.70;;;;;;;;;;5045076;28;20098;-77
2023/01/17 18:22:18;;;;;;;5.05;2.00;;;;;;;;;;5049447;28;20363;-77
2023/01/17 18:24:44;;;;;;;5.60;2.00;;;;;;;;;;5050279;28;20086;-77
2023/01/17 18:27:10;;;;;;;4.97;1.90;;;;;;;;;;5054490;28;20029;-77
2023/01/17 18:29:36;;;;;;;4.57;1.98;;;;;;;;;;5054232;28;20136;-77
2023/01/17 18:32:02;;;;;;;4.43;1.90;;;;;;;;;;5034512;28;20167;-77
2023/01/17 18:34:28;;;;;;;4.10;2.63;;;;;;;;;;5056038;28;20102;-77
2023/01/17 18:36:54;;;;;;;20.67;6.93;;;;;;;;;;5057069;28;20025;-77
2023/01/17 18:39:23;;;;;;;14.85;6.75;;;;;;;;;;5056175;28;20110;-77
2023/01/17 18:41:49;;;;;;;10.48;4.50;;;;;;;;;;5038454;28;20483;-77
2023/01/17 18:44:15;;;;;;;11.75;4.05;;;;;;;;;;5056421;28;20053;-77
2023/01/17 18:46:42;;;;;;;10.10;4.97;;;;;;;;;;5055885;28;20096;-77
2023/01/17 18:49:10;;;;;;;12.55;5.78;;;;;;;;;;5036368;28;20032;-77
2023/01/17 18:51:36;;;;;;;4.22;2.83;;;;;;;;;;5036291;28;20057;-77
2023/01/17 18:54:08;;;;;;;3.75;1.00;;;;;;;;;;5047747;28;20063;-77
2023/01/17 18:56:35;;;;;;;3.22;0.90;;;;;;;;;;5055586;28;20093;-77
2023/01/17 18:59:01;;;;;;;1.95;0.77;;;;;;;;;;5054698;28;20033;-77
2023/01/17 19:01:28;;;;;;;1.58;0.90;;;;;;;;;;5034972;28;20112;-77
2023/01/17 19:03:56;;;;;;;5.80;0.90;;;;;;;;;;5048952;28;20049;-77
2023/01/17 19:06:24;;;;;;;7.45;1.38;;;;;;;;;;5055872;28;20021;-77
2023/01/17 19:08:53;;;;;;;7.32;1.90;;;;;;;;;;5055798;28;20040;-77
2023/01/17 19:11:20;;;;;;;2.97;1.88;;;;;;;;;;5055938;28;20025;-77
2023/01/17 19:13:47;;;;;;;3.55;1.40;;;;;;;;;;5054380;28;20021;-77
2023/01/17 19:16:14;;;;;;;5.82;1.80;;;;;;;;;;5041718;28;20112;-77
2023/01/17 19:18:40;;;;;;;5.00;2.20;;;;;;;;;;5039698;28;20025;-77
2023/01/17 19:21:11;;;;;;;3.85;1.75;;;;;;;;;;5046305;28;20044;-77
2023/01/17 19:23:37;;;;;;;;;;;;;;;;;;5037351;28;20025;-77
2023/01/17 19:26:03;;;;;;;4.53;1.60;;;;;;;;;;5049847;28;19905;-77
2023/01/17 19:28:30;;;;;;;5.70;2.03;;;;;;;;;;5045792;28;20033;-77
2023/01/17 19:31:09;;;;;;;8.57;3.35;;;;;;;;;;5053081;28;20386;-77
2023/01/17 19:33:36;;;;;;;10.05;2.33;;;;;;;;;;5044375;28;20024;-77
2023/01/17 19:36:03;;;;;;;6.70;1.88;;;;;;;;;;5041723;28;20022;-77
2023/01/17 19:38:29;;;;;;;5.13;1.95;;;;;;;;;;5049518;28;20071;-77
2023/01/17 19:40:55;;;;;;;3.47;1.60;;;;;;;;;;5040151;28;20045;-77
2023/01/17 19:43:22;;;;;;;2.42;1.02;;;;;;;;;;5040792;28;20405;-77
2023/01/17 19:45:58;;;;;;;4.82;1.05;;;;;;;;;;5043295;28;20071;-77
2023/01/17 19:48:24;;;;;;;2.78;1.05;;;;;;;;;;5041880;28;20025;-77
2023/01/17 19:50:50;;;;;;;8.88;1.00;;;;;;;;;;5052238;28;20032;-77
2023/01/17 19:53:16;;;;;;;1.83;0.70;;;;;;;;;;5039707;28;20029;-77
2023/01/17 19:55:42;;;;;;;4.47;0.95;;;;;;;;;;5051273;28;20385;-77
2023/01/17 19:58:08;;;;;;;4.70;1.00;;;;;;;;;;5048022;28;20017;-77
2023/01/17 20:00:34;;;;;;;3.47;1.10;;;;;;;;;;5041283;28;20033;-77
2023/01/17 20:03:01;;;;;;;2.22;1.05;;;;;;;;;;5041981;28;20032;-77
2023/01/17 20:05:27;;;;;;;2.55;1.60;;;;;;;;;;5042108;28;20382;-77
2023/01/17 20:07:54;;;;;;;3.92;1.45;;;;;;;;;;5035439;28;20529;-76
2023/01/17 20:10:20;;;;;;;2.28;1.20;;;;;;;;;;5043034;28;20082;-76
2023/01/17 20:12:46;;;;;;;2.53;1.45;;;;;;;;;;5056730;28;20017;-76
2023/01/17 20:15:11;;;;;;;1.23;1.05;;;;;;;;;;5064137;22;20057;-80
2023/01/17 20:17:37;;;;;;;3.90;2.40;;;;;;;;;;5038099;28;20515;-80
2023/01/17 20:20:12;;;;;;;3.97;1.85;;;;;;;;;;5036942;28;20083;-80
2023/01/17 20:22:41;;;;;;;9.70;3.33;;;;;;;;;;5037721;28;20017;-80
2023/01/17 20:25:08;;;;;;;9.17;3.77;;;;;;;;;;5037042;28;20516;-80
2023/01/17 20:27:34;;;;;;;6.25;3.45;;;;;;;;;;5036478;28;20282;-80
2023/01/17 20:30:00;;;;;;;5.30;2.97;;;;;;;;;;5035219;28;20102;-80
2023/01/17 20:32:26;;;;;;;5.75;2.55;;;;;;;;;;5035440;28;20025;-80
2023/01/17 20:34:52;;;;;;;4.82;2.20;;;;;;;;;;5035667;28;20030;-80
2023/01/17 20:37:18;;;;;;;4.32;2.08;;;;;;;;;;5035721;28;20036;-80
2023/01/17 20:39:44;;;;;;;4.38;1.58;;;;;;;;;;5017209;28;20394;-80
2023/01/17 20:42:10;;;;;;;3.10;1.40;;;;;;;;;;5035403;28;20101;-80
2023/01/17 20:44:36;;;;;;;5.60;1.80;;;;;;;;;;5035066;28;20060;-80
2023/01/17 20:47:02;;;;;;;6.55;2.60;;;;;;;;;;5035040;28;20021;-81
2023/01/17 20:49:28;;;;;;;3.33;2.17;;;;;;;;;;5035076;28;20589;-79
2023/01/17 20:51:54;;;;;;;6.13;2.72;;;;;;;;;;5035295;28;20065;-79
2023/01/17 20:54:22;;;;;;;5.78;3.00;;;;;;;;;;5017970;28;20056;-79
2023/01/17 20:56:48;;;;;;;4.78;2.20;;;;;;;;;;5035504;28;20025;-79
2023/01/17 20:59:16;;;;;;;5.07;2.20;;;;;;;;;;5035171;28;20036;-79
2023/01/17 21:01:42;;;;;;;8.43;1.95;;;;;;;;;;5035013;28;20025;-79
2023/01/17 21:07:11;;;;;;;4.18;2.30;;;;;;;;;;4996033;28;20173;-79
2023/01/17 21:09:37;;;;;;;5.40;3.22;;;;;;;;;;4995682;28;20508;-79
2023/01/17 21:12:03;;;;;;;3.42;1.90;;;;;;;;;;4997131;28;20206;-79
2023/01/17 21:14:30;;;;;;;4.70;1.48;;;;;;;;;;5015059;28;20165;-79
2023/01/17 21:16:56;;;;;;;3.85;1.90;;;;;;;;;;5015474;28;20025;-79
2023/01/17 21:19:22;;;;;;;5.15;1.60;;;;;;;;;;5014901;28;20038;-79
2023/01/17 21:21:48;;;;;;;2.72;0.88;;;;;;;;;;5014855;28;20415;-79
2023/01/17 21:24:17;;;;;;;2.60;0.68;;;;;;;;;;5015388;28;20026;-79
2023/01/17 21:26:45;;;;;;;2.38;0.85;;;;;;;;;;5015586;28;20356;-79
2023/01/17 21:29:11;;;;;;;1.23;0.63;;;;;;;;;;5014959;28;20022;-79
2023/01/17 21:35:04;;;;;;;1.63;0.70;;;;;;;;;;4995622;28;20077;-78
2023/01/17 21:37:30;;;;;;;5.80;0.95;;;;;;;;;;5014932;28;20038;-79
2023/01/17 21:39:56;;;;;;;3.13;0.90;;;;;;;;;;5015199;28;20041;-79
2023/01/17 21:42:34;;;;;;;1.67;0.73;;;;;;;;;;5015009;28;20025;-79
2023/01/17 21:45:33;;;;;;;5.85;1.08;;;;;;;;;;5015007;28;20030;-78
2023/01/17 21:47:59;;;;;;;4.07;0.98;;;;;;;;;;4997012;28;20026;-78
2023/01/17 21:50:25;;;;;;;3.20;1.60;;;;;;;;;;5012139;28;20034;-79
2023/01/17 21:52:51;;;;;;;7.68;1.90;;;;;;;;;;4994976;28;20058;-79
2023/01/17 22:00:46;;;;;;;6.57;1.50;;;;;;;;;;4995106;28;20053;-79
2023/01/17 22:03:12;;;;;;;3.88;1.60;;;;;;;;;;4998804;28;20454;-79
2023/01/17 22:05:38;;;;;;;6.43;1.42;;;;;;;;;;4998725;28;20026;-79
2023/01/17 22:08:10;;;;;;;1.73;1.08;;;;;;;;;;4998583;28;20038;-79
2023/01/17 22:10:43;;;;;;;4.32;1.83;;;;;;;;;;4981053;28;20023;-79
2023/01/17 22:13:12;;;;;;;2.70;1.50;;;;;;;;;;4998823;28;20026;-79
2023/01/17 22:15:38;;;;;;;3.00;1.60;;;;;;;;;;4998373;28;20507;-79
2023/01/17 22:18:04;;;;;;;3.92;2.33;;;;;;;;;;5029287;28;20349;-79
2023/01/17 22:20:30;;;;;;;3.78;2.47;;;;;;;;;;5037903;28;20037;-79
2023/01/17 22:22:56;;;;;;;4.85;2.30;;;;;;;;;;5019804;28;20078;-79
2023/01/17 22:31:32;;;;;;;3.22;2.50;;;;;;;;;;5037842;28;20036;-79
2023/01/17 22:33:59;;;;;;;6.28;3.17;;;;;;;;;;5037906;28;20037;-79
2023/01/17 22:36:25;;;;;;;3.75;1.95;;;;;;;;;;5038084;28;20108;-79
2023/01/17 22:38:52;;;;;;;4.03;1.38;;;;;;;;;;5037958;28;20439;-79
2023/01/17 22:41:22;;;;;;;3.13;1.10;;;;;;;;;;5037415;28;20037;-79
2023/01/17 22:43:49;;;;;;;3.17;0.77;;;;;;;;;;5037900;28;20026;-79
2023/01/17 22:46:17;;;;;;;5.10;1.05;;;;;;;;;;5037807;28;20467;-79
2023/01/17 22:48:44;;;;;;;2.58;0.85;;;;;;;;;;5037595;28;20359;-79
2023/01/17 22:51:14;;;;;;;2.78;1.00;;;;;;;;;;5037486;28;20640;-79
2023/01/17 22:53:41;;;;;;;2.17;0.95;;;;;;;;;;5037258;28;20082;-79
2023/01/17 22:56:08;;;;;;;3.13;1.10;;;;;;;;;;5037382;28;20025;-79
2023/01/17 22:58:35;;;;;;;4.78;1.10;;;;;;;;;;5037051;28;20028;-79
2023/01/17 23:01:05;;;;;;;3.45;1.58;;;;;;;;;;5023714;28;20447;-79
2023/01/17 23:03:32;;;;;;;2.55;1.15;;;;;;;;;;5017841;28;20018;-79
2023/01/17 23:06:08;;;;;;;1.92;1.05;;;;;;;;;;4999569;28;20361;-79
2023/01/17 23:08:44;;;;;;;4.30;1.17;;;;;;;;;;4998759;28;20031;-79
2023/01/17 23:11:39;;;;;;;2.80;1.08;;;;;;;;;;4999166;28;20060;-79
2023/01/17 23:14:11;;;;;;;2.35;1.10;;;;;;;;;;5003446;28;20073;-79
2023/01/17 23:19:23;;;;;;;2.53;1.10;;;;;;;;;;5014002;28;20068;-79
2023/01/17 23:24:42;;;;;;;4.15;1.33;;;;;;;;;;5001605;28;20074;-79
2023/01/17 23:29:53;;;;;;;1.30;0.70;;;;;;;;;;4999951;28;20037;-79
2023/01/17 23:32:19;;;;;;;4.68;0.80;;;;;;;;;;4998318;28;20026;-79
2023/01/17 23:34:46;;;;;;;2.13;0.70;;;;;;;;;;4997859;28;20030;-79
2023/01/17 23:37:12;;;;;;;1.73;0.60;;;;;;;;;;4997924;28;20018;-79
2023/01/17 23:39:38;;;;;;;2.47;0.90;;;;;;;;;;4997879;28;20435;-78
2023/01/17 23:44:49;;;;;;;3.08;0.60;;;;;;;;;;4996944;28;20029;-79
2023/01/17 23:47:24;;;;;;;2.45;0.77;;;;;;;;;;5002468;28;20026;-79
2023/01/17 23:49:50;;;;;;;3.20;0.70;;;;;;;;;;5007444;28;20026;-79
2023/01/17 23:52:38;;;;;;;2.97;0.70;;;;;;;;;;4997479;28;20422;-79
2023/01/17 23:55:04;;;;;;;4.10;0.40;;;;;;;;;;4997318;28;20022;-78
2023/01/17 23:57:30;;;;;;;2.08;0.60;;;;;;;;;;4997832;28;20038;-79
2023/01/17 23:59:56;;;;;;;1.58;0.60;;;;;;;;;;4997107;28;20084;-79
